Terminal Aerodrome Forecast
Issued by NWS

Home | Current Version | Previous Version | Text Only | Print | Product List | Glossary On
Versions: 1 2 3 4 5 6 7 8 9 10 11 12 13 14 15
000
FTUS46 KSEW 231100
TAFBLI
TAF
KBLI 231120Z 2312/2412 17006KT P6SM BKN019 OVC035
     FM231900 17008KT P6SM OVC050
     FM241100 17012KT P6SM OVC025=

USA.gov is the U.S. government's official web portal to all federal, state and local government web resources and services.